createdAt,value
2023-06-28T00:00:40.993Z,101798.63
2023-06-28T00:03:12.409Z,101805.00
2023-06-28T00:05:39.285Z,101810.78
2023-06-28T00:08:06.041Z,101808.00
2023-06-28T00:10:32.524Z,101802.47
2023-06-28T00:12:59.215Z,101806.28
2023-06-28T00:15:25.803Z,101801.59
2023-06-28T00:17:52.922Z,101809.91
2023-06-28T00:20:19.480Z,101804.38
2023-06-28T00:22:45.981Z,101807.38
2023-06-28T00:25:12.540Z,101807.38
2023-06-28T00:27:39.128Z,101801.81
2023-06-28T00:30:07.312Z,101806.50
2023-06-28T00:32:33.905Z,101804.59
2023-06-28T00:35:00.528Z,101804.59
2023-06-28T00:37:27.170Z,101808.44
2023-06-28T00:39:53.696Z,101805.66
2023-06-28T00:42:20.330Z,101805.66
2023-06-28T00:44:47.422Z,101808.44
2023-06-28T00:47:15.809Z,101811.22
2023-06-28T00:49:44.180Z,101811.22
2023-06-28T00:52:12.551Z,101812.28
2023-06-28T00:54:40.490Z,101809.50
2023-06-28T00:57:08.823Z,101811.41
2023-06-28T00:59:35.676Z,101813.31
2023-06-28T01:02:03.230Z,101803.97
2023-06-28T01:04:29.859Z,101809.69
2023-06-28T01:07:00.892Z,101813.31
2023-06-28T01:09:29.372Z,101807.75
2023-06-28T01:11:57.962Z,101806.06
2023-06-28T01:14:25.257Z,101800.53
2023-06-28T01:16:56.264Z,101796.91
2023-06-28T01:19:25.568Z,101805.22
2023-06-28T01:22:04.241Z,101800.53
2023-06-28T01:24:31.011Z,101796.25
2023-06-28T01:27:00.057Z,101793.50
2023-06-28T01:29:27.682Z,101787.94
2023-06-28T01:31:57.356Z,101793.28
2023-06-28T01:34:25.797Z,101785.19
2023-06-28T01:36:55.924Z,101796.25
2023-06-28T01:39:23.641Z,101802.88
2023-06-28T01:41:52.559Z,101800.97
2023-06-28T01:44:19.489Z,101800.09
2023-06-28T01:46:46.537Z,101796.47
2023-06-28T01:49:13.379Z,101794.56
2023-06-28T01:51:40.705Z,101794.78
2023-06-28T01:54:08.319Z,101796.47
2023-06-28T01:56:34.880Z,101802.03
2023-06-28T01:59:01.508Z,101809.50
2023-06-28T02:01:29.094Z,101799.47
2023-06-28T02:03:55.823Z,101797.56
2023-06-28T02:06:22.688Z,101801.16
2023-06-28T02:08:49.266Z,101801.38
2023-06-28T02:11:15.757Z,101801.38
2023-06-28T02:13:42.277Z,101804.16
2023-06-28T02:16:08.885Z,101801.38
2023-06-28T02:18:36.228Z,101803.31
2023-06-28T02:21:03.146Z,101799.69
2023-06-28T02:23:30.090Z,101794.16
2023-06-28T02:25:59.036Z,101803.31
2023-06-28T02:28:25.981Z,101798.84
2023-06-28T02:30:52.530Z,101801.59
2023-06-28T02:33:23.672Z,101796.06
2023-06-28T02:35:50.183Z,101797.13
2023-06-28T02:38:16.699Z,101789.66
2023-06-28T02:40:43.475Z,101794.34
2023-06-28T02:43:10.303Z,101794.34
2023-06-28T02:45:36.819Z,101798.19
2023-06-28T02:48:03.542Z,101790.75
2023-06-28T02:50:30.121Z,101789.88
2023-06-28T02:53:02.783Z,101797.34
2023-06-28T02:55:29.444Z,101789.03
2023-06-28T02:57:59.672Z,101788.19
2023-06-28T03:00:26.364Z,101789.03
2023-06-28T03:02:53.048Z,101788.19
2023-06-28T03:05:21.496Z,101779.00
2023-06-28T03:07:48.987Z,101784.56
2023-06-28T03:10:16.202Z,101786.47
2023-06-28T03:12:42.772Z,101785.63
2023-06-28T03:15:11.277Z,101784.56
2023-06-28T03:17:37.951Z,101779.22
2023-06-28T03:20:09.203Z,101780.09
2023-06-28T03:22:38.110Z,101780.09
2023-06-28T03:25:05.476Z,101779.22
2023-06-28T03:27:32.012Z,101777.53
2023-06-28T03:29:58.598Z,101783.94
2023-06-28T03:32:25.747Z,101776.69
2023-06-28T03:34:54.217Z,101768.38
2023-06-28T03:37:20.720Z,101777.53
2023-06-28T03:39:49.720Z,101777.53
2023-06-28T03:42:16.607Z,101770.28
2023-06-28T03:44:43.455Z,101766.66
2023-06-28T03:47:13.741Z,101774.13
2023-06-28T03:49:41.234Z,101769.44
2023-06-28T03:52:08.352Z,101769.44
2023-06-28T03:54:34.915Z,101769.44
2023-06-28T03:57:01.473Z,101769.44
2023-06-28T03:59:28.029Z,101767.72
2023-06-28T04:01:54.652Z,101764.09
2023-06-28T04:04:21.269Z,101767.72
2023-06-28T04:06:47.972Z,101767.72
2023-06-28T04:09:14.677Z,101761.56
2023-06-28T04:11:41.247Z,101767.94
2023-06-28T04:14:07.888Z,101764.31
2023-06-28T04:16:34.420Z,101765.19
2023-06-28T04:19:01.221Z,101758.78
2023-06-28T04:21:30.703Z,101754.09
2023-06-28T04:23:57.572Z,101760.69
2023-06-28T04:26:24.232Z,101760.69
2023-06-28T04:28:50.744Z,101769.00
2023-06-28T04:31:17.270Z,101759.84
2023-06-28T04:33:43.826Z,101763.47
2023-06-28T04:36:10.851Z,101759.00
2023-06-28T04:38:38.202Z,101761.78
2023-06-28T04:41:06.506Z,101757.28
2023-06-28T04:43:41.322Z,101770.09
2023-06-28T04:46:13.642Z,101772.22
2023-06-28T04:48:42.656Z,101763.91
2023-06-28T04:51:09.854Z,101763.91
2023-06-28T04:53:36.471Z,101766.69
2023-06-28T04:56:03.028Z,101769.66
2023-06-28T04:58:30.245Z,101765.81
2023-06-28T05:00:58.631Z,101766.91
2023-06-28T05:03:29.205Z,101766.03
2023-06-28T05:05:56.005Z,101769.03
2023-06-28T05:08:22.910Z,101768.81
2023-06-28T05:10:49.911Z,101762.41
2023-06-28T05:13:16.952Z,101759.66
2023-06-28T05:15:43.641Z,101766.03
2023-06-28T05:18:10.352Z,101764.34
2023-06-28T05:20:36.923Z,101765.19
2023-06-28T05:23:18.273Z,101763.28
2023-06-28T05:25:45.884Z,101763.50
2023-06-28T05:28:15.196Z,101761.56
2023-06-28T05:30:43.324Z,101766.25
2023-06-28T05:33:10.633Z,101762.63
2023-06-28T05:35:37.784Z,101767.31
2023-06-28T05:38:05.655Z,101758.16
2023-06-28T05:40:33.744Z,101763.72
2023-06-28T05:43:00.331Z,101770.94
2023-06-28T05:45:27.913Z,101766.47
2023-06-28T05:47:55.169Z,101761.78
2023-06-28T05:50:24.699Z,101762.00
2023-06-28T05:52:51.573Z,101760.09
2023-06-28T05:55:18.146Z,101763.91
2023-06-28T05:57:46.057Z,101756.47
2023-06-28T06:00:13.620Z,101761.16
2023-06-28T06:02:41.167Z,101764.78
2023-06-28T06:05:08.788Z,101757.53
2023-06-28T06:07:40.477Z,101761.16
2023-06-28T06:10:12.120Z,101756.69
2023-06-28T06:12:38.939Z,101760.50
2023-06-28T06:15:07.032Z,101755.81
2023-06-28T06:17:33.796Z,101749.44
2023-06-28T06:20:01.788Z,101758.59
2023-06-28T06:22:28.633Z,101751.13
2023-06-28T06:24:55.177Z,101754.13
2023-06-28T06:27:21.685Z,101759.66
2023-06-28T06:29:48.265Z,101758.59
2023-06-28T06:32:14.847Z,101756.91
2023-06-28T06:34:41.463Z,101760.50
2023-06-28T06:37:13.247Z,101770.75
2023-06-28T06:39:40.600Z,101769.03
2023-06-28T06:42:07.672Z,101763.50
2023-06-28T06:44:35.497Z,101761.59
2023-06-28T06:47:02.740Z,101762.66
2023-06-28T06:49:29.488Z,101763.50
2023-06-28T06:51:56.140Z,101763.50
2023-06-28T06:54:22.929Z,101763.50
2023-06-28T06:56:49.440Z,101757.13
2023-06-28T06:59:17.639Z,101755.19
2023-06-28T07:01:44.341Z,101759.03
2023-06-28T07:04:11.145Z,101760.94
2023-06-28T07:06:37.929Z,101764.56
2023-06-28T07:09:04.711Z,101766.50
2023-06-28T07:11:31.402Z,101769.25
2023-06-28T07:13:57.954Z,101767.34
2023-06-28T07:16:24.493Z,101760.94
2023-06-28T07:18:55.071Z,101761.81
2023-06-28T07:21:22.519Z,101764.56
2023-06-28T07:23:49.146Z,101763.72
2023-06-28T07:26:15.851Z,101763.72
2023-06-28T07:28:43.001Z,101762.00
2023-06-28T07:31:09.603Z,101764.78
2023-06-28T07:33:36.387Z,101764.78
2023-06-28T07:36:03.214Z,101764.78
2023-06-28T07:38:29.796Z,101762.88
2023-06-28T07:40:56.297Z,101750.94
2023-06-28T07:43:22.887Z,101756.47
2023-06-28T07:45:49.795Z,101754.78
2023-06-28T07:48:16.424Z,101759.25
2023-06-28T07:50:43.972Z,101757.53
2023-06-28T07:53:10.556Z,101763.94
2023-06-28T07:55:37.387Z,101759.47
2023-06-28T07:58:03.971Z,101773.09
2023-06-28T08:00:32.125Z,101775.00
2023-06-28T08:02:59.875Z,101763.94
2023-06-28T08:05:26.580Z,101767.56
2023-06-28T08:07:56.453Z,101763.09
2023-06-28T08:10:26.859Z,101774.16
2023-06-28T08:12:54.649Z,101769.69
2023-06-28T08:15:21.286Z,101766.72
2023-06-28T08:17:48.243Z,101759.47
2023-06-28T08:20:15.314Z,101760.31
2023-06-28T08:22:41.936Z,101766.06
2023-06-28T08:25:09.113Z,101766.91
2023-06-28T08:27:36.525Z,101765.84
2023-06-28T08:30:03.365Z,101765.00
2023-06-28T08:32:29.930Z,101760.53
2023-06-28T08:34:56.518Z,101764.16
2023-06-28T08:37:23.148Z,101764.16
2023-06-28T08:39:49.787Z,101762.22
2023-06-28T08:42:18.878Z,101761.38
2023-06-28T08:44:49.800Z,101763.09
2023-06-28T08:47:17.019Z,101765.22
2023-06-28T08:49:43.994Z,101759.69
2023-06-28T08:52:11.240Z,101763.31
2023-06-28T08:54:38.572Z,101763.31
2023-06-28T08:57:12.587Z,101765.00
2023-06-28T08:59:40.373Z,101766.91
2023-06-28T09:02:10.562Z,101759.69
2023-06-28T09:04:37.466Z,101754.13
2023-06-28T09:07:05.485Z,101756.91
2023-06-28T09:09:34.072Z,101755.19
2023-06-28T09:12:01.416Z,101756.06
2023-06-28T09:14:28.331Z,101760.75
2023-06-28T09:16:55.055Z,101756.06
2023-06-28T09:19:21.619Z,101753.28
2023-06-28T09:21:48.136Z,101758.81
2023-06-28T09:24:14.805Z,101755.19
2023-06-28T09:26:47.415Z,101750.50
2023-06-28T09:29:14.174Z,101756.06
2023-06-28T09:31:46.193Z,101753.28
2023-06-28T09:34:12.756Z,101754.34
2023-06-28T09:36:39.623Z,101746.03
2023-06-28T09:39:06.702Z,101751.59
2023-06-28T09:41:43.855Z,101752.44
2023-06-28T09:44:11.807Z,101753.50
2023-06-28T09:46:48.348Z,101760.75
2023-06-28T09:49:22.300Z,101753.50
2023-06-28T09:51:59.600Z,101756.28
2023-06-28T09:54:46.802Z,101759.03
2023-06-28T09:57:13.619Z,101764.78
2023-06-28T09:59:40.702Z,101754.56
2023-06-28T10:02:09.213Z,101751.78
2023-06-28T10:04:37.895Z,101759.91
2023-06-28T10:07:06.034Z,101758.19
2023-06-28T10:09:40.911Z,101754.34
2023-06-28T10:12:16.030Z,101756.06
2023-06-28T10:14:49.954Z,101744.34
2023-06-28T10:17:17.832Z,101752.66
2023-06-28T10:19:45.083Z,101750.72
2023-06-28T10:22:12.756Z,101745.19
2023-06-28T10:24:39.951Z,101747.09
2023-06-28T10:27:07.054Z,101747.09
2023-06-28T10:29:33.990Z,101750.72
2023-06-28T10:32:00.956Z,101750.72
2023-06-28T10:34:28.975Z,101739.66
2023-06-28T10:36:57.357Z,101742.41
2023-06-28T10:39:24.031Z,101744.34
2023-06-28T10:42:01.011Z,101738.59
2023-06-28T10:44:27.731Z,101737.94
2023-06-28T10:47:20.860Z,101739.66
2023-06-28T10:50:06.448Z,101738.78
2023-06-28T10:52:33.228Z,101739.88
2023-06-28T10:55:01.783Z,101732.41
2023-06-28T10:57:37.796Z,101746.03
2023-06-28T11:00:12.275Z,101732.41
2023-06-28T11:02:52.751Z,101734.97
2023-06-28T11:05:41.535Z,101729.41
2023-06-28T11:08:13.304Z,101726.88
2023-06-28T11:10:44.352Z,101730.50
2023-06-28T11:13:13.064Z,101727.72
2023-06-28T11:15:44.799Z,101725.78
2023-06-28T11:18:16.747Z,101715.56
2023-06-28T11:21:01.948Z,101716.41
2023-06-28T11:23:30.972Z,101721.09
2023-06-28T11:26:01.084Z,101719.19
2023-06-28T11:28:36.969Z,101721.97
2023-06-28T11:31:14.373Z,101720.03
2023-06-28T11:33:44.799Z,101708.09
2023-06-28T11:36:12.842Z,101701.72
2023-06-28T11:38:43.186Z,101711.72
2023-06-28T11:41:09.759Z,101700.66
2023-06-28T11:43:36.286Z,101695.09
2023-06-28T11:46:03.507Z,101712.38
2023-06-28T11:48:30.082Z,101709.81
2023-06-28T11:51:01.286Z,101702.13
2023-06-28T11:53:29.805Z,101698.72
2023-06-28T11:55:58.089Z,101696.81
2023-06-28T11:58:42.413Z,101706.81
2023-06-28T12:01:22.582Z,101704.06
2023-06-28T12:03:49.472Z,101698.72
2023-06-28T12:06:16.353Z,101699.59
2023-06-28T12:08:42.958Z,101701.28
2023-06-28T12:11:12.710Z,101701.28
2023-06-28T12:13:42.685Z,101701.28
2023-06-28T12:16:17.069Z,101701.06
2023-06-28T12:19:02.949Z,101704.06
2023-06-28T12:21:40.282Z,101703.19
2023-06-28T12:24:23.493Z,101706.81
2023-06-28T12:26:52.444Z,101708.75
2023-06-28T12:29:20.720Z,101692.13
2023-06-28T12:31:49.216Z,101692.97
2023-06-28T12:34:25.433Z,101691.06
2023-06-28T12:36:54.913Z,101697.44
2023-06-28T12:39:49.711Z,101682.75
2023-06-28T12:42:23.558Z,101685.50
2023-06-28T12:44:55.195Z,101685.50
2023-06-28T12:47:29.421Z,101679.97
2023-06-28T12:49:56.891Z,101677.19
2023-06-28T12:52:30.466Z,101664.19
2023-06-28T12:54:58.097Z,101675.28
2023-06-28T12:57:28.762Z,101670.59
2023-06-28T12:59:55.900Z,101678.91
2023-06-28T13:02:22.631Z,101672.28
2023-06-28T13:04:50.159Z,101672.28
2023-06-28T13:07:16.971Z,101669.53
2023-06-28T13:09:43.523Z,101673.16
2023-06-28T13:12:10.208Z,101676.75
2023-06-28T13:14:36.720Z,101669.31
2023-06-28T13:17:04.739Z,101676.75
2023-06-28T13:19:32.260Z,101667.59
2023-06-28T13:21:58.850Z,101662.91
2023-06-28T13:24:25.381Z,101669.31
2023-06-28T13:26:54.309Z,101664.63
2023-06-28T13:29:21.119Z,101668.44
2023-06-28T13:31:47.832Z,101660.13
2023-06-28T13:34:15.938Z,101664.63
2023-06-28T13:36:44.408Z,101655.44
2023-06-28T13:39:10.956Z,101656.31
2023-06-28T13:41:37.580Z,101667.38
2023-06-28T13:44:04.628Z,101664.63
2023-06-28T13:46:31.300Z,101652.69
2023-06-28T13:48:57.928Z,101654.38
2023-06-28T13:51:24.532Z,101658.00
2023-06-28T13:53:51.156Z,101654.38
2023-06-28T13:56:18.565Z,101657.16
2023-06-28T13:58:45.517Z,101655.22
2023-06-28T14:01:12.331Z,101649.69
2023-06-28T14:03:38.993Z,101652.47
2023-06-28T14:06:05.559Z,101650.53
2023-06-28T14:08:32.355Z,101649.69
2023-06-28T14:10:59.160Z,101655.22
2023-06-28T14:13:25.955Z,101656.09
2023-06-28T14:15:52.471Z,101647.78
2023-06-28T14:18:19.050Z,101643.28
2023-06-28T14:20:45.631Z,101644.16
2023-06-28T14:23:12.211Z,101645.00
2023-06-28T14:25:38.851Z,101636.69
2023-06-28T14:28:05.428Z,101635.00
2023-06-28T14:30:32.022Z,101631.16
2023-06-28T14:32:58.652Z,101631.16
2023-06-28T14:35:25.204Z,101626.69
2023-06-28T14:37:51.901Z,101634.75
2023-06-28T14:40:18.610Z,101629.22
2023-06-28T14:42:45.154Z,101618.16
2023-06-28T14:45:14.284Z,101620.06
2023-06-28T14:47:42.613Z,101610.69
2023-06-28T14:50:10.161Z,101617.28
2023-06-28T14:52:37.331Z,101620.06
2023-06-28T14:55:06.819Z,101626.47
2023-06-28T14:57:33.525Z,101628.16
2023-06-28T15:00:00.080Z,101625.59
2023-06-28T15:02:26.620Z,101621.13
2023-06-28T15:04:53.308Z,101611.75
2023-06-28T15:07:20.211Z,101617.28
2023-06-28T15:09:47.109Z,101618.16
2023-06-28T15:12:13.681Z,101611.75
2023-06-28T15:14:40.381Z,101610.91
2023-06-28T15:17:07.102Z,101608.34
2023-06-28T15:19:34.186Z,101612.81
2023-06-28T15:22:01.068Z,101611.13
2023-06-28T15:24:27.744Z,101609.19
2023-06-28T15:26:55.554Z,101603.66
2023-06-28T15:29:22.223Z,101613.03
2023-06-28T15:31:49.401Z,101611.97
2023-06-28T15:34:16.017Z,101610.28
2023-06-28T15:36:42.854Z,101612.19
2023-06-28T15:39:10.146Z,101605.81
2023-06-28T15:41:36.707Z,101613.88
2023-06-28T15:44:03.238Z,101615.81
2023-06-28T15:46:33.895Z,101613.03
2023-06-28T15:49:00.915Z,101614.13
2023-06-28T15:51:28.356Z,101605.81
2023-06-28T15:53:55.330Z,101609.66
2023-06-28T15:56:25.844Z,101611.34
2023-06-28T15:58:52.555Z,101609.66
2023-06-28T16:01:19.579Z,101610.50
2023-06-28T16:03:46.379Z,101610.72
2023-06-28T16:06:13.111Z,101608.78
2023-06-28T16:08:39.771Z,101607.94
2023-06-28T16:11:06.362Z,101604.31
2023-06-28T16:13:33.275Z,101604.31
2023-06-28T16:16:03.314Z,101608.78
2023-06-28T16:18:29.838Z,101607.94
2023-06-28T16:20:56.383Z,101604.09
2023-06-28T16:23:22.887Z,101603.47
2023-06-28T16:25:49.578Z,101600.47
2023-06-28T16:28:16.127Z,101603.47
2023-06-28T16:30:42.794Z,101603.47
2023-06-28T16:33:09.675Z,101598.78
2023-06-28T16:35:36.644Z,101597.94
2023-06-28T16:38:08.935Z,101596.84
2023-06-28T16:40:35.514Z,101595.16
2023-06-28T16:43:04.459Z,101590.47
2023-06-28T16:45:32.536Z,101589.63
2023-06-28T16:47:59.653Z,101588.78
2023-06-28T16:50:26.737Z,101585.16
2023-06-28T16:52:53.741Z,101589.63
2023-06-28T16:55:21.349Z,101588.78
2023-06-28T16:57:47.949Z,101587.91
2023-06-28T17:00:14.807Z,101591.75
2023-06-28T17:02:42.098Z,101582.38
2023-06-28T17:05:08.971Z,101591.53
2023-06-28T17:07:35.600Z,101593.47
2023-06-28T17:10:02.165Z,101591.53
2023-06-28T17:12:28.696Z,101594.31
2023-06-28T17:14:55.210Z,101595.38
2023-06-28T17:17:21.762Z,101589.84
2023-06-28T17:19:48.321Z,101600.69
2023-06-28T17:22:14.928Z,101599.84
2023-06-28T17:24:41.426Z,101599.84
2023-06-28T17:27:07.928Z,101598.16
2023-06-28T17:29:35.062Z,101590.69
2023-06-28T17:32:01.927Z,101587.91
2023-06-28T17:34:28.462Z,101598.16
2023-06-28T17:36:54.990Z,101586.00
2023-06-28T17:39:21.658Z,101594.31
2023-06-28T17:41:48.275Z,101590.69
2023-06-28T17:44:14.829Z,101598.16
2023-06-28T17:46:41.340Z,101599.00
2023-06-28T17:49:07.871Z,101591.53
2023-06-28T17:51:34.403Z,101596.22
2023-06-28T17:54:01.051Z,101600.91
2023-06-28T17:56:27.571Z,101599.00
2023-06-28T17:58:54.084Z,101599.00
2023-06-28T18:01:20.747Z,101603.69
2023-06-28T18:03:52.250Z,101605.59
2023-06-28T18:06:20.201Z,101609.22
2023-06-28T18:08:48.108Z,101608.38
2023-06-28T18:11:16.041Z,101603.69
2023-06-28T18:13:43.161Z,101602.00
2023-06-28T18:16:09.693Z,101599.22
2023-06-28T18:18:36.465Z,101608.38
2023-06-28T18:21:03.596Z,101610.31
2023-06-28T18:23:30.189Z,101610.31
2023-06-28T18:25:56.749Z,101617.75
2023-06-28T18:28:23.336Z,101613.06
2023-06-28T18:30:50.484Z,101616.69
2023-06-28T18:33:17.612Z,101611.16
2023-06-28T18:35:44.148Z,101613.06
2023-06-28T18:38:10.767Z,101609.44
2023-06-28T18:40:37.965Z,101610.31
2023-06-28T18:43:04.552Z,101610.53
2023-06-28T18:45:31.305Z,101611.38
2023-06-28T18:47:58.717Z,101612.22
2023-06-28T18:50:25.392Z,101607.53
2023-06-28T18:52:51.931Z,101608.59
2023-06-28T18:55:21.131Z,101606.69
2023-06-28T18:57:47.787Z,101605.81
2023-06-28T19:00:14.730Z,101601.34
2023-06-28T19:02:41.466Z,101606.69
2023-06-28T19:05:08.426Z,101601.34
2023-06-28T19:07:35.822Z,101612.22
2023-06-28T19:10:03.278Z,101604.97
2023-06-28T19:12:29.855Z,101598.59
2023-06-28T19:14:56.362Z,101603.06
2023-06-28T19:17:23.132Z,101599.44
2023-06-28T19:19:49.817Z,101604.13
2023-06-28T19:22:17.954Z,101608.81
2023-06-28T19:24:44.540Z,101606.91
2023-06-28T19:27:12.962Z,101600.50
2023-06-28T19:29:39.488Z,101606.91
2023-06-28T19:32:06.717Z,101610.75
2023-06-28T19:34:35.218Z,101606.03
2023-06-28T19:37:01.816Z,101601.56
2023-06-28T19:39:28.465Z,101604.34
2023-06-28T19:41:55.072Z,101606.03
2023-06-28T19:44:21.846Z,101603.28
2023-06-28T19:46:48.395Z,101602.44
2023-06-28T19:49:14.942Z,101609.88
2023-06-28T19:51:41.461Z,101604.34
2023-06-28T19:54:08.313Z,101607.13
2023-06-28T19:56:34.920Z,101612.66
2023-06-28T19:59:01.511Z,101609.88
2023-06-28T20:01:28.095Z,101611.81
2023-06-28T20:03:54.780Z,101620.97
2023-06-28T20:06:21.611Z,101610.97
2023-06-28T20:08:48.416Z,101622.03
2023-06-28T20:11:15.462Z,101624.59
2023-06-28T20:13:41.952Z,101622.88
2023-06-28T20:16:08.568Z,101622.03
2023-06-28T20:18:35.095Z,101616.50
2023-06-28T20:21:01.609Z,101619.25
2023-06-28T20:23:28.159Z,101622.03
2023-06-28T20:25:54.919Z,101615.66
2023-06-28T20:28:21.424Z,101616.50
2023-06-28T20:30:47.900Z,101617.34
2023-06-28T20:33:14.859Z,101615.66
2023-06-28T20:35:42.818Z,101614.56
2023-06-28T20:38:09.464Z,101619.25
2023-06-28T20:40:35.981Z,101609.22
2023-06-28T20:43:03.386Z,101614.75
2023-06-28T20:45:32.551Z,101614.75
2023-06-28T20:47:59.247Z,101612.88
2023-06-28T20:50:25.801Z,101611.16
2023-06-28T20:52:53.400Z,101615.84
2023-06-28T20:55:20.104Z,101626.91
2023-06-28T20:57:46.656Z,101617.75
2023-06-28T21:00:15.765Z,101615.84
2023-06-28T21:02:43.055Z,101615.84
2023-06-28T21:05:11.802Z,101619.44
2023-06-28T21:07:38.609Z,101618.59
2023-06-28T21:10:06.098Z,101619.44
2023-06-28T21:12:35.255Z,101613.06
2023-06-28T21:15:01.890Z,101618.59
2023-06-28T21:17:28.503Z,101612.22
2023-06-28T21:19:55.196Z,101620.53
2023-06-28T21:22:22.755Z,101613.06
2023-06-28T21:24:49.755Z,101609.44
2023-06-28T21:27:16.962Z,101612.22
2023-06-28T21:29:43.770Z,101611.34
2023-06-28T21:32:10.552Z,101613.06
2023-06-28T21:34:42.581Z,101607.53
2023-06-28T21:37:09.977Z,101608.59
2023-06-28T21:39:36.538Z,101609.44
2023-06-28T21:42:04.078Z,101602.19
2023-06-28T21:44:30.663Z,101609.66
2023-06-28T21:46:57.281Z,101604.97
2023-06-28T21:49:23.764Z,101605.81
2023-06-28T21:51:50.280Z,101604.97
2023-06-28T21:54:20.913Z,101604.97
2023-06-28T21:56:47.786Z,101602.19
2023-06-28T21:59:14.594Z,101604.13
2023-06-28T22:01:41.206Z,101599.66
2023-06-28T22:04:07.676Z,101596.88
2023-06-28T22:06:35.597Z,101601.34
2023-06-28T22:09:02.541Z,101597.72
2023-06-28T22:11:29.295Z,101600.50
2023-06-28T22:14:03.812Z,101596.88
2023-06-28T22:16:39.106Z,101587.50
2023-06-28T22:19:06.352Z,101594.09
2023-06-28T22:21:33.067Z,101591.34
2023-06-28T22:23:59.556Z,101584.94
2023-06-28T22:26:26.193Z,101584.94
2023-06-28T22:28:52.791Z,101581.34
2023-06-28T22:31:19.648Z,101578.56
2023-06-28T22:33:46.256Z,101579.41
2023-06-28T22:36:12.802Z,101573.88
2023-06-28T22:38:48.043Z,101583.03
2023-06-28T22:41:18.556Z,101579.41
2023-06-28T22:43:45.149Z,101571.94
2023-06-28T22:46:12.220Z,101573.03
2023-06-28T22:48:38.707Z,101564.72
2023-06-28T22:51:06.898Z,101571.09
2023-06-28T22:53:33.956Z,101561.94
2023-06-28T22:56:00.765Z,101567.47
2023-06-28T22:58:27.608Z,101570.25
2023-06-28T23:00:55.687Z,101556.41
2023-06-28T23:03:23.174Z,101556.41
2023-06-28T23:05:51.865Z,101553.63
2023-06-28T23:08:18.503Z,101549.16
2023-06-28T23:10:50.807Z,101546.41
2023-06-28T23:13:24.700Z,101553.00
2023-06-28T23:15:52.045Z,101550.22
2023-06-28T23:18:21.900Z,101558.53
2023-06-28T23:20:57.147Z,101558.53
2023-06-28T23:23:25.713Z,101552.16
2023-06-28T23:25:53.396Z,101551.09
2023-06-28T23:28:25.430Z,101552.16
2023-06-28T23:30:52.856Z,101553.00
2023-06-28T23:33:20.155Z,101552.16
2023-06-28T23:35:49.661Z,101550.22
2023-06-28T23:38:16.347Z,101545.75
2023-06-28T23:40:43.376Z,101556.84
2023-06-28T23:43:10.747Z,101543.84
2023-06-28T23:45:42.079Z,101541.06
2023-06-28T23:48:09.825Z,101540.44
2023-06-28T23:50:37.067Z,101544.91
2023-06-28T23:53:04.345Z,101540.22
2023-06-28T23:55:31.371Z,101539.16
2023-06-28T23:57:58.012Z,101537.47
